createdAt,value
2022-09-18T00:01:34.235Z,71.29
2022-09-18T00:04:09.138Z,70.98
2022-09-18T00:06:39.942Z,70.94
2022-09-18T00:09:14.738Z,71.76
2022-09-18T00:11:46.215Z,71.22
2022-09-18T00:14:17.711Z,70.70
2022-09-18T00:16:45.644Z,69.95
2022-09-18T00:19:13.238Z,69.45
2022-09-18T00:21:47.703Z,68.90
2022-09-18T00:24:17.590Z,68.27
2022-09-18T00:26:46.501Z,69.57
2022-09-18T00:29:15.351Z,68.91
2022-09-18T00:31:42.966Z,68.97
2022-09-18T00:34:15.827Z,69.88
2022-09-18T00:36:43.915Z,69.32
2022-09-18T00:39:12.138Z,69.83
2022-09-18T00:41:42.895Z,69.53
2022-09-18T00:44:33.956Z,69.29
2022-09-18T00:47:10.251Z,69.21
2022-09-18T00:49:44.269Z,69.78
2022-09-18T00:52:14.386Z,68.98
2022-09-18T00:54:45.635Z,68.98
2022-09-18T00:57:21.983Z,69.32
2022-09-18T00:59:51.387Z,69.69
2022-09-18T01:02:19.233Z,68.77
2022-09-18T01:04:47.307Z,69.19
2022-09-18T01:07:42.627Z,68.84
2022-09-18T01:10:18.897Z,69.11
2022-09-18T01:13:06.934Z,69.13
2022-09-18T01:15:39.970Z,68.83
2022-09-18T01:18:43.416Z,69.31
2022-09-18T01:21:17.129Z,68.80
2022-09-18T01:24:28.412Z,69.43
2022-09-18T01:27:04.370Z,69.29
2022-09-18T01:29:57.390Z,68.53
2022-09-18T01:33:08.130Z,68.64
2022-09-18T01:35:46.354Z,68.44
2022-09-18T01:38:20.557Z,68.50
2022-09-18T01:40:58.366Z,68.97
2022-09-18T01:43:30.411Z,68.75
2022-09-18T01:46:04.614Z,68.23
2022-09-18T01:48:35.549Z,68.48
2022-09-18T01:51:20.747Z,67.99
2022-09-18T01:54:03.933Z,68.42
2022-09-18T01:56:39.324Z,68.93
2022-09-18T01:59:24.827Z,68.86
2022-09-18T02:01:56.344Z,68.32
2022-09-18T02:04:29.376Z,68.23
2022-09-18T02:07:31.801Z,68.21
2022-09-18T02:09:59.299Z,67.97
2022-09-18T02:12:30.701Z,68.66
2022-09-18T02:15:03.786Z,68.13
2022-09-18T02:17:48.110Z,68.81
2022-09-18T02:20:24.829Z,68.51
2022-09-18T02:22:56.585Z,69.12
2022-09-18T02:25:32.002Z,68.62
2022-09-18T02:27:59.518Z,68.68
2022-09-18T02:30:28.903Z,68.27
2022-09-18T02:32:57.409Z,68.53
2022-09-18T02:35:36.576Z,68.54
2022-09-18T02:38:35.565Z,68.35
2022-09-18T02:41:32.202Z,68.71
2022-09-18T02:44:14.143Z,68.61
2022-09-18T02:47:01.620Z,68.60
2022-09-18T02:49:46.706Z,68.65
2022-09-18T02:52:46.636Z,69.30
2022-09-18T02:55:24.074Z,68.71
2022-09-18T02:58:02.660Z,68.85
2022-09-18T03:00:31.898Z,69.08
2022-09-18T03:03:00.162Z,69.40
2022-09-18T03:05:27.714Z,68.62
2022-09-18T03:07:54.948Z,68.77
2022-09-18T03:10:22.161Z,68.73
2022-09-18T03:12:49.442Z,68.39
2022-09-18T03:15:17.064Z,68.99
2022-09-18T03:17:44.269Z,69.27
2022-09-18T03:20:11.571Z,68.73
2022-09-18T03:22:38.853Z,68.67
2022-09-18T03:25:06.982Z,68.31
2022-09-18T03:27:34.191Z,68.43
2022-09-18T03:30:01.438Z,68.26
2022-09-18T03:32:28.671Z,68.65
2022-09-18T03:34:56.693Z,67.72
2022-09-18T03:37:24.430Z,68.45
2022-09-18T03:39:51.737Z,68.14
2022-09-18T03:42:18.969Z,68.26
2022-09-18T03:44:46.131Z,67.99
2022-09-18T03:47:13.371Z,68.76
2022-09-18T03:49:40.524Z,68.53
2022-09-18T03:52:07.847Z,68.71
2022-09-18T03:54:35.054Z,68.93
2022-09-18T03:57:02.307Z,69.21
2022-09-18T03:59:29.569Z,68.94
2022-09-18T04:01:57.707Z,68.61
2022-09-18T04:04:25.252Z,68.35
2022-09-18T04:06:52.464Z,68.15
2022-09-18T04:09:19.780Z,68.22
2022-09-18T04:11:47.260Z,68.19
2022-09-18T04:14:14.898Z,68.21
2022-09-18T04:16:42.154Z,68.39
2022-09-18T04:19:09.381Z,68.24
2022-09-18T04:21:36.607Z,68.07
2022-09-18T04:24:04.030Z,68.67
2022-09-18T04:26:31.257Z,68.42
2022-09-18T04:28:59.452Z,68.81
2022-09-18T04:31:26.860Z,68.49
2022-09-18T04:33:54.256Z,66.77
2022-09-18T04:36:21.453Z,67.70
2022-09-18T04:38:48.714Z,68.72
2022-09-18T04:41:16.004Z,69.05
2022-09-18T04:43:43.536Z,68.38
2022-09-18T04:46:11.035Z,68.12
2022-09-18T04:48:38.372Z,67.84
2022-09-18T04:51:05.941Z,69.14
2022-09-18T04:53:35.487Z,69.23
2022-09-18T04:56:02.956Z,68.81
2022-09-18T04:58:30.238Z,68.96
2022-09-18T05:00:57.509Z,68.54
2022-09-18T05:03:24.798Z,68.77
2022-09-18T05:05:52.800Z,68.38
2022-09-18T05:08:19.976Z,68.06
2022-09-18T05:10:47.449Z,69.27
2022-09-18T05:13:14.911Z,69.01
2022-09-18T05:15:42.233Z,69.34
2022-09-18T05:18:12.735Z,69.35
2022-09-18T05:20:40.127Z,70.02
2022-09-18T05:23:07.554Z,69.94
2022-09-18T05:25:34.827Z,69.93
2022-09-18T05:28:03.866Z,71.03
2022-09-18T05:30:32.076Z,70.67
2022-09-18T05:33:05.349Z,71.12
2022-09-18T05:35:35.013Z,69.59
2022-09-18T05:38:04.102Z,70.53
2022-09-18T05:40:37.424Z,71.07
2022-09-18T05:43:07.319Z,71.40
2022-09-18T05:45:35.376Z,71.05
2022-09-18T05:48:06.052Z,70.40
2022-09-18T05:50:36.379Z,71.69
2022-09-18T05:53:14.466Z,70.48
2022-09-18T05:55:42.298Z,71.34
2022-09-18T05:58:16.076Z,70.52
2022-09-18T06:00:47.142Z,70.79
2022-09-18T06:03:16.827Z,71.03
2022-09-18T06:05:52.052Z,70.63
2022-09-18T06:08:19.680Z,71.66
2022-09-18T06:10:47.433Z,70.87
2022-09-18T06:13:17.924Z,69.99
2022-09-18T06:15:52.385Z,70.41
2022-09-18T06:18:20.039Z,70.95
2022-09-18T06:20:57.468Z,71.50
2022-09-18T06:23:27.937Z,71.02
2022-09-18T06:26:04.770Z,70.13
2022-09-18T06:28:34.199Z,70.11
2022-09-18T06:31:03.359Z,70.87
2022-09-18T06:33:30.780Z,69.89
2022-09-18T06:36:00.756Z,70.81
2022-09-18T06:38:28.483Z,70.05
2022-09-18T06:40:55.744Z,70.10
2022-09-18T06:43:23.038Z,70.46
2022-09-18T06:45:55.461Z,69.65
2022-09-18T06:48:24.378Z,69.35
2022-09-18T06:50:56.149Z,68.81
2022-09-18T06:53:24.324Z,68.92
2022-09-18T06:55:51.851Z,69.02
2022-09-18T06:58:20.539Z,69.13
2022-09-18T07:00:47.836Z,68.15
2022-09-18T07:03:15.427Z,68.98
2022-09-18T07:05:46.949Z,68.87
2022-09-18T07:08:15.025Z,67.26
2022-09-18T07:10:42.374Z,67.96
2022-09-18T07:13:10.211Z,67.07
2022-09-18T07:15:37.461Z,67.91
2022-09-18T07:18:08.039Z,68.61
2022-09-18T07:20:35.365Z,68.27
2022-09-18T07:23:03.875Z,67.33
2022-09-18T07:25:34.555Z,68.69
2022-09-18T07:28:10.277Z,68.26
2022-09-18T07:30:39.208Z,67.38
2022-09-18T07:33:10.078Z,67.77
2022-09-18T07:35:37.382Z,67.69
2022-09-18T07:38:07.342Z,68.37
2022-09-18T07:40:34.998Z,69.24
2022-09-18T07:43:04.647Z,68.61
2022-09-18T07:45:31.955Z,68.82
2022-09-18T07:48:05.985Z,68.96
2022-09-18T07:50:34.184Z,69.08
2022-09-18T07:53:04.929Z,69.19
2022-09-18T07:55:35.233Z,68.98
2022-09-18T07:58:06.319Z,69.03
2022-09-18T08:00:36.504Z,67.70
2022-09-18T08:03:13.269Z,68.73
2022-09-18T08:05:42.151Z,69.34
2022-09-18T08:08:15.300Z,69.82
2022-09-18T08:10:45.216Z,69.16
2022-09-18T08:13:13.671Z,68.56
2022-09-18T08:15:42.912Z,69.54
2022-09-18T08:18:11.720Z,68.88
2022-09-18T08:20:39.254Z,68.40
2022-09-18T08:23:12.564Z,69.53
2022-09-18T08:25:41.289Z,69.13
2022-09-18T08:28:09.780Z,68.29
2022-09-18T08:30:37.049Z,69.08
2022-09-18T08:33:08.097Z,68.43
2022-09-18T08:35:35.426Z,69.06
2022-09-18T08:38:02.845Z,67.13
2022-09-18T08:40:52.561Z,67.65
2022-09-18T08:43:19.808Z,68.54
2022-09-18T08:46:09.380Z,68.37
2022-09-18T08:48:48.514Z,68.71
2022-09-18T08:51:33.191Z,68.54
2022-09-18T08:54:38.414Z,67.68
2022-09-18T08:57:15.678Z,67.59
2022-09-18T08:59:52.830Z,67.47
2022-09-18T09:02:47.260Z,68.48
2022-09-18T09:05:19.442Z,67.54
2022-09-18T09:08:00.862Z,67.23
2022-09-18T09:10:47.225Z,67.55
2022-09-18T09:13:20.329Z,67.29
2022-09-18T09:15:59.078Z,66.95
2022-09-18T09:18:39.883Z,66.91
2022-09-18T09:21:24.820Z,66.70
2022-09-18T09:24:08.405Z,67.17
2022-09-18T09:26:36.995Z,66.96
2022-09-18T09:29:19.101Z,66.52
2022-09-18T09:32:21.220Z,66.14
2022-09-18T09:35:30.280Z,66.23
2022-09-18T09:38:06.837Z,66.87
2022-09-18T09:40:45.471Z,66.82
2022-09-18T09:43:58.677Z,66.32
2022-09-18T09:46:57.920Z,65.71
2022-09-18T09:49:29.875Z,65.65
2022-09-18T09:52:25.396Z,65.94
2022-09-18T09:55:22.486Z,67.96
2022-09-18T09:58:31.534Z,66.95
2022-09-18T10:01:12.255Z,67.56
2022-09-18T10:04:10.935Z,67.30
2022-09-18T10:07:02.131Z,68.56
2022-09-18T10:09:51.790Z,68.49
2022-09-18T10:12:52.023Z,67.97
2022-09-18T10:15:47.250Z,68.71
2022-09-18T10:18:19.765Z,67.82
2022-09-18T10:20:51.683Z,68.13
2022-09-18T10:23:33.878Z,69.17
2022-09-18T10:26:02.346Z,68.92
2022-09-18T10:28:30.304Z,69.45
2022-09-18T10:31:07.268Z,70.47
2022-09-18T10:33:43.478Z,69.85
2022-09-18T10:36:38.220Z,70.88
2022-09-18T10:39:38.057Z,70.16
2022-09-18T10:42:07.146Z,71.12
2022-09-18T10:44:43.769Z,71.24
2022-09-18T10:47:21.937Z,71.54
2022-09-18T10:50:07.079Z,72.28
2022-09-18T10:52:47.821Z,72.73
2022-09-18T10:55:25.411Z,72.97
2022-09-18T10:57:58.379Z,74.17
2022-09-18T11:00:25.727Z,73.65
2022-09-18T11:03:20.920Z,73.71
2022-09-18T11:05:53.110Z,74.12
2022-09-18T11:08:41.558Z,74.59
2022-09-18T11:11:29.294Z,74.60
2022-09-18T11:14:04.471Z,73.60
2022-09-18T11:16:37.941Z,75.00
2022-09-18T11:19:11.318Z,73.92
2022-09-18T11:21:55.217Z,74.66
2022-09-18T11:24:33.622Z,75.01
2022-09-18T11:27:21.663Z,75.46
2022-09-18T11:29:49.541Z,74.15
2022-09-18T11:32:27.540Z,74.85
2022-09-18T11:34:58.397Z,76.50
2022-09-18T11:37:35.370Z,75.48
2022-09-18T11:40:08.564Z,72.30
2022-09-18T11:42:45.130Z,74.91
2022-09-18T11:45:30.659Z,75.22
2022-09-18T11:48:34.712Z,73.32
2022-09-18T11:51:10.224Z,72.67
2022-09-18T11:53:46.318Z,75.46
2022-09-18T11:56:45.611Z,74.44
2022-09-18T11:59:35.626Z,73.32
2022-09-18T12:02:42.587Z,72.20
2022-09-18T12:05:27.244Z,72.84
2022-09-18T12:08:14.254Z,74.55
2022-09-18T12:11:15.768Z,71.94
2022-09-18T12:14:01.673Z,72.83
2022-09-18T12:17:17.306Z,72.53
2022-09-18T12:19:52.140Z,72.08
2022-09-18T12:22:27.564Z,71.20
2022-09-18T12:24:55.916Z,70.84
2022-09-18T12:28:03.447Z,70.39
2022-09-18T12:30:43.287Z,71.23
2022-09-18T12:34:04.392Z,72.47
2022-09-18T12:36:46.304Z,70.32
2022-09-18T12:39:49.981Z,67.85
2022-09-18T12:42:54.632Z,71.19
2022-09-18T12:45:30.651Z,69.45
2022-09-18T12:48:36.241Z,69.73
2022-09-18T12:51:24.695Z,68.72
2022-09-18T12:54:24.531Z,70.86
2022-09-18T12:57:05.992Z,67.45
2022-09-18T12:59:39.535Z,67.68
2022-09-18T13:02:37.274Z,66.75
2022-09-18T13:05:26.041Z,68.30
2022-09-18T13:08:05.304Z,68.56
2022-09-18T13:10:46.022Z,64.53
2022-09-18T13:13:31.105Z,65.52
2022-09-18T13:16:06.829Z,63.33
2022-09-18T13:18:39.218Z,64.51
2022-09-18T13:21:24.354Z,65.88
2022-09-18T13:23:53.575Z,64.95
2022-09-18T13:26:24.779Z,64.44
2022-09-18T13:28:52.023Z,64.06
2022-09-18T13:31:33.276Z,64.46
2022-09-18T13:34:04.690Z,63.38
2022-09-18T13:36:37.278Z,65.40
2022-09-18T13:39:22.795Z,64.92
2022-09-18T13:41:56.583Z,65.79
2022-09-18T13:44:27.453Z,62.50
2022-09-18T13:46:59.138Z,64.86
2022-09-18T13:49:32.938Z,64.59
2022-09-18T13:52:34.228Z,63.26
2022-09-18T13:55:13.310Z,63.93
2022-09-18T13:57:43.477Z,63.82
2022-09-18T14:00:20.241Z,60.97
2022-09-18T14:02:48.927Z,61.87
2022-09-18T14:05:33.791Z,62.53
2022-09-18T14:08:09.880Z,62.26
2022-09-18T14:11:11.410Z,63.52
2022-09-18T14:13:43.192Z,62.27
2022-09-18T14:16:20.007Z,64.28
2022-09-18T14:18:47.186Z,60.30
2022-09-18T14:21:19.085Z,61.00
2022-09-18T14:23:46.278Z,62.88
2022-09-18T14:26:32.174Z,63.58
2022-09-18T14:29:29.396Z,61.36
2022-09-18T14:32:00.058Z,62.33
2022-09-18T14:34:43.179Z,61.76
2022-09-18T14:37:24.827Z,63.57
2022-09-18T14:40:04.624Z,61.99
2022-09-18T14:42:36.434Z,62.35
2022-09-18T14:45:06.996Z,62.26
2022-09-18T14:47:34.475Z,64.19
2022-09-18T14:50:01.811Z,64.55
2022-09-18T14:52:42.502Z,64.88
2022-09-18T14:55:18.211Z,63.99
2022-09-18T14:57:53.747Z,63.03
2022-09-18T15:00:25.545Z,63.28
2022-09-18T15:02:58.474Z,63.43
2022-09-18T15:05:28.381Z,63.75
2022-09-18T15:08:21.662Z,64.42
2022-09-18T15:10:53.955Z,63.49
2022-09-18T15:13:22.682Z,64.10
2022-09-18T15:16:01.526Z,63.49
2022-09-18T15:18:30.714Z,64.03
2022-09-18T15:21:03.417Z,63.34
2022-09-18T15:23:39.074Z,64.92
2022-09-18T15:26:13.182Z,65.75
2022-09-18T15:28:45.713Z,66.12
2022-09-18T15:31:14.350Z,67.31
2022-09-18T15:34:08.613Z,67.69
2022-09-18T15:36:38.668Z,67.05
2022-09-18T15:39:08.063Z,67.60
2022-09-18T15:41:46.329Z,68.88
2022-09-18T15:44:34.891Z,69.37
2022-09-18T15:47:38.364Z,70.29
2022-09-18T15:50:35.914Z,68.66
2022-09-18T15:53:22.786Z,68.17
2022-09-18T15:55:58.665Z,67.33
2022-09-18T15:58:38.368Z,67.53
2022-09-18T16:01:14.193Z,67.79
2022-09-18T16:03:41.709Z,68.19
2022-09-18T16:06:25.942Z,69.05
2022-09-18T16:08:56.562Z,68.33
2022-09-18T16:11:44.735Z,69.16
2022-09-18T16:14:45.289Z,69.84
2022-09-18T16:17:33.788Z,69.24
2022-09-18T16:20:40.152Z,70.15
2022-09-18T16:23:30.550Z,69.48
2022-09-18T16:26:15.506Z,70.77
2022-09-18T16:28:50.662Z,69.54
2022-09-18T16:31:21.473Z,70.12
2022-09-18T16:34:25.026Z,70.53
2022-09-18T16:36:55.288Z,70.51
2022-09-18T16:39:26.453Z,70.59
2022-09-18T16:41:53.778Z,70.91
2022-09-18T16:44:20.978Z,70.41
2022-09-18T16:47:06.089Z,70.66
2022-09-18T16:49:39.415Z,70.96
2022-09-18T16:52:06.939Z,71.41
2022-09-18T16:54:34.265Z,71.46
2022-09-18T16:57:19.846Z,72.07
2022-09-18T16:59:49.650Z,71.59
2022-09-18T17:02:23.311Z,72.17
2022-09-18T17:04:53.165Z,71.87
2022-09-18T17:07:20.417Z,72.20
2022-09-18T17:09:47.616Z,72.72
2022-09-18T17:12:14.869Z,72.33
2022-09-18T17:14:42.127Z,73.45
2022-09-18T17:17:09.388Z,72.52
2022-09-18T17:19:36.937Z,72.35
2022-09-18T17:22:04.150Z,73.42
2022-09-18T17:24:31.403Z,73.41
2022-09-18T17:26:59.169Z,73.67
2022-09-18T17:29:27.584Z,73.15
2022-09-18T17:31:54.859Z,73.50
2022-09-18T17:34:22.276Z,73.23
2022-09-18T17:36:49.592Z,73.35
2022-09-18T17:39:17.190Z,72.87
2022-09-18T17:41:45.943Z,73.85
2022-09-18T17:44:13.301Z,73.61
2022-09-18T17:46:40.671Z,73.85
2022-09-18T17:49:08.051Z,73.37
2022-09-18T17:51:35.314Z,73.31
2022-09-18T17:54:05.200Z,73.26
2022-09-18T17:56:34.132Z,73.34
2022-09-18T17:59:08.476Z,73.40
2022-09-18T18:01:43.427Z,73.42
2022-09-18T18:04:10.777Z,73.13
2022-09-18T18:06:38.997Z,73.01
2022-09-18T18:09:10.099Z,72.71
2022-09-18T18:11:38.328Z,72.93
2022-09-18T18:14:08.286Z,72.68
2022-09-18T18:16:37.269Z,72.28
2022-09-18T18:19:08.852Z,71.62
2022-09-18T18:21:36.500Z,72.07
2022-09-18T18:24:09.152Z,71.95
2022-09-18T18:26:38.634Z,72.63
2022-09-18T18:29:11.132Z,72.53
2022-09-18T18:31:43.463Z,71.36
2022-09-18T18:34:13.740Z,70.12
2022-09-18T18:36:43.007Z,70.47
2022-09-18T18:39:12.496Z,72.61
2022-09-18T18:41:40.265Z,71.42
2022-09-18T18:44:08.367Z,71.72
2022-09-18T18:46:37.899Z,72.35
2022-09-18T18:49:09.479Z,72.35
2022-09-18T18:51:44.133Z,73.45
2022-09-18T18:54:12.956Z,72.80
2022-09-18T18:56:41.438Z,72.88
2022-09-18T18:59:14.192Z,73.08
2022-09-18T19:01:43.202Z,72.96
2022-09-18T19:04:14.121Z,72.78
2022-09-18T19:06:43.695Z,73.29
2022-09-18T19:09:24.627Z,73.32
2022-09-18T19:11:54.026Z,73.25
2022-09-18T19:14:26.051Z,73.19
2022-09-18T19:16:54.744Z,73.08
2022-09-18T19:19:24.966Z,73.55
2022-09-18T19:21:53.330Z,72.50
2022-09-18T19:24:21.790Z,72.64
2022-09-18T19:26:49.107Z,72.83
2022-09-18T19:29:19.546Z,73.33
2022-09-18T19:31:48.378Z,73.00
2022-09-18T19:34:19.435Z,72.12
2022-09-18T19:36:50.127Z,71.79
2022-09-18T19:39:21.285Z,71.19
2022-09-18T19:42:12.322Z,71.50
2022-09-18T19:45:02.321Z,73.09
2022-09-18T19:47:38.513Z,71.96
2022-09-18T19:50:06.344Z,71.44
2022-09-18T19:52:33.891Z,71.32
2022-09-18T19:55:01.252Z,71.49
2022-09-18T19:57:30.158Z,71.53
2022-09-18T19:59:59.425Z,70.40
2022-09-18T20:02:27.811Z,70.17
2022-09-18T20:04:55.559Z,70.68
2022-09-18T20:07:22.885Z,70.52
2022-09-18T20:09:50.235Z,70.75
2022-09-18T20:12:18.151Z,70.79
2022-09-18T20:14:45.534Z,70.12
2022-09-18T20:17:12.761Z,69.94
2022-09-18T20:19:39.939Z,70.14
2022-09-18T20:22:07.911Z,69.77
2022-09-18T20:24:35.147Z,70.18
2022-09-18T20:27:02.434Z,69.59
2022-09-18T20:29:30.582Z,70.19
2022-09-18T20:31:58.264Z,71.26
2022-09-18T20:37:14.541Z,70.83
2022-09-18T20:39:41.747Z,70.77
2022-09-18T20:42:08.946Z,71.61
2022-09-18T20:44:36.428Z,72.85
2022-09-18T20:47:05.319Z,73.93
2022-09-18T20:49:33.667Z,74.19
2022-09-18T20:52:03.619Z,74.58
2022-09-18T20:54:31.173Z,75.07
2022-09-18T20:56:59.644Z,75.38
2022-09-18T20:59:27.125Z,75.59
2022-09-18T21:01:54.345Z,75.79
2022-09-18T21:04:21.735Z,75.70
2022-09-18T21:06:56.434Z,76.21
2022-09-18T21:09:27.457Z,77.05
2022-09-18T21:11:56.929Z,76.68
2022-09-18T21:14:25.542Z,77.61
2022-09-18T21:16:53.382Z,77.11
2022-09-18T21:19:20.692Z,77.35
2022-09-18T21:21:49.217Z,77.82
2022-09-18T21:24:17.550Z,77.76
2022-09-18T21:26:48.968Z,77.89
2022-09-18T21:29:18.059Z,78.45
2022-09-18T21:31:47.576Z,78.01
2022-09-18T21:34:24.269Z,78.37
2022-09-18T21:36:55.256Z,78.10
2022-09-18T21:39:22.777Z,78.44
2022-09-18T21:41:51.989Z,78.73
2022-09-18T21:44:24.702Z,78.25
2022-09-18T21:46:52.224Z,79.14
2022-09-18T21:49:19.957Z,79.24
2022-09-18T21:51:47.262Z,79.69
2022-09-18T21:54:19.567Z,79.57
2022-09-18T21:56:56.232Z,80.22
2022-09-18T21:59:26.634Z,80.45
2022-09-18T22:01:55.175Z,80.26
2022-09-18T22:04:29.408Z,80.06
2022-09-18T22:06:58.771Z,79.39
2022-09-18T22:09:39.408Z,80.16
2022-09-18T22:12:07.945Z,79.96
2022-09-18T22:14:38.269Z,79.64
2022-09-18T22:17:09.191Z,80.04
2022-09-18T22:19:41.150Z,80.02
2022-09-18T22:22:09.196Z,80.30
2022-09-18T22:24:36.516Z,79.98
2022-09-18T22:27:08.673Z,80.61
2022-09-18T22:29:38.502Z,80.77
2022-09-18T22:32:06.731Z,80.72
2022-09-18T22:34:35.138Z,80.67
2022-09-18T22:37:03.256Z,80.85
2022-09-18T22:39:30.861Z,80.85
2022-09-18T22:41:58.767Z,80.62
2022-09-18T22:44:26.140Z,80.53
2022-09-18T22:46:53.805Z,80.62
2022-09-18T22:49:23.839Z,80.37
2022-09-18T22:51:52.362Z,80.79
2022-09-18T22:54:24.936Z,80.49
2022-09-18T22:56:53.308Z,80.57
2022-09-18T22:59:24.124Z,80.42
2022-09-18T23:02:02.405Z,80.50
2022-09-18T23:04:32.904Z,80.52
2022-09-18T23:07:01.373Z,80.96
2022-09-18T23:09:29.434Z,80.43
2022-09-18T23:11:57.770Z,80.77
2022-09-18T23:14:29.299Z,80.62
2022-09-18T23:16:57.902Z,80.85
2022-09-18T23:19:28.952Z,80.71
2022-09-18T23:21:57.057Z,80.81
2022-09-18T23:24:25.544Z,81.35
2022-09-18T23:26:55.844Z,80.66
2022-09-18T23:29:25.815Z,80.51
2022-09-18T23:31:55.681Z,80.41
2022-09-18T23:34:28.183Z,80.58
2022-09-18T23:36:58.168Z,80.60
2022-09-18T23:39:32.659Z,80.05
2022-09-18T23:42:02.124Z,80.23
2022-09-18T23:44:31.383Z,80.47
2022-09-18T23:47:00.238Z,80.18
2022-09-18T23:49:28.508Z,80.72
2022-09-18T23:51:57.136Z,80.63
2022-09-18T23:54:29.221Z,80.77
2022-09-18T23:56:56.982Z,81.20
2022-09-18T23:59:26.001Z,81.31
